Time;durP1;ratioP1;P1;durP2;ratioP2;P2;SDS_P1;SDS_P2;PMS_P1;PMS_P2;Temp;Humidity;BMP_temperature;BMP_pressure;BME280_temperature;BME280_humidity;BME280_pressure;Samples;Min_cycle;Max_cycle;Signal;HPM_P1;HPM_P2
2024/02/07 00:02:13;;;;;;;10.02;7.25;;;;;;;-12.65;91.21;99593.38;5053873;28;20036;-68
2024/02/07 00:04:39;;;;;;;7.30;6.20;;;;;;;-12.73;91.39;99580.75;5053973;28;20041;-68
2024/02/07 00:07:04;;;;;;;9.43;7.27;;;;;;;-12.61;91.10;99600.09;5055527;28;20065;-67
2024/02/07 00:09:30;;;;;;;10.30;8.07;;;;;;;-12.66;91.08;99602.78;5054748;28;20112;-67
2024/02/07 00:11:55;;;;;;;11.23;8.80;;;;;;;-12.84;91.33;99581.09;5053680;28;20172;-68
2024/02/07 00:14:20;;;;;;;12.30;7.63;;;;;;;-12.70;91.89;99613.19;5063137;28;20542;-65
2024/02/07 00:16:46;;;;;;;9.70;6.30;;;;;;;-12.65;92.50;99603.63;5041056;28;20480;-71
2024/02/07 00:19:12;;;;;;;9.77;7.27;;;;;;;-12.88;92.82;99540.22;5053612;28;20470;-68
2024/02/07 00:21:37;;;;;;;11.73;6.63;;;;;;;-12.45;92.63;99593.56;5051638;28;20535;-67
2024/02/07 00:24:03;;;;;;;10.73;7.37;;;;;;;-12.45;92.35;99573.06;5052011;28;20089;-67
2024/02/07 00:26:28;;;;;;;10.00;6.83;;;;;;;-12.36;92.29;99572.78;5053597;28;20045;-68
2024/02/07 00:28:54;;;;;;;11.10;7.60;;;;;;;-12.31;91.15;99581.16;5053295;28;20033;-68
2024/02/07 00:31:21;;;;;;;13.43;6.70;;;;;;;-12.84;90.51;99505.91;5052581;28;20389;-69
2024/02/07 00:33:46;;;;;;;13.68;8.20;;;;;;;-12.57;90.44;99540.94;5053285;28;20116;-67
2024/02/07 00:36:12;;;;;;;9.87;7.70;;;;;;;-12.61;90.79;99541.09;5052938;28;20029;-70
2024/02/07 00:38:37;;;;;;;10.43;6.70;;;;;;;-12.54;90.85;99542.56;5051526;28;20054;-69
2024/02/07 00:41:03;;;;;;;10.23;6.77;;;;;;;-12.55;90.62;99556.28;5057434;28;20059;-65
2024/02/07 00:43:32;;;;;;;11.73;7.07;;;;;;;-12.72;90.82;99545.69;5057845;28;20611;-68
2024/02/07 00:45:58;;;;;;;12.82;7.47;;;;;;;-12.91;91.38;99523.22;5054556;28;20033;-70
2024/02/07 00:48:23;;;;;;;11.55;7.68;;;;;;;-13.39;92.36;99433.31;5056180;28;20035;-69
2024/02/07 00:50:49;;;;;;;10.13;7.10;;;;;;;-12.69;91.52;99509.75;5057571;28;20068;-65
2024/02/07 00:53:14;;;;;;;7.43;6.23;;;;;;;-12.78;90.95;99507.44;5037431;28;20044;-67
2024/02/07 00:55:40;;;;;;;8.80;6.60;;;;;;;-12.65;90.84;99524.97;5053210;28;20147;-68
2024/02/07 00:58:06;;;;;;;7.67;6.53;;;;;;;-12.87;90.12;99506.84;5053488;28;20037;-72
2024/02/07 01:00:32;;;;;;;8.27;6.55;;;;;;;-12.88;90.43;99525.69;5053961;28;20036;-66
2024/02/07 01:02:57;;;;;;;10.90;7.70;;;;;;;-12.97;90.90;99525.97;5052389;28;20465;-75
2024/02/07 01:05:23;;;;;;;13.63;9.17;;;;;;;-13.12;90.95;99518.72;5053623;28;20029;-68
2024/02/07 01:07:48;;;;;;;11.27;7.67;;;;;;;-13.29;91.92;99491.09;5057822;28;20120;-69
2024/02/07 01:10:14;;;;;;;8.77;7.40;;;;;;;-14.43;91.58;99288.00;5059119;28;20033;-69
2024/02/07 01:12:40;;;;;;;9.13;6.90;;;;;;;-13.23;91.27;99484.94;5069828;28;20094;-67
2024/02/07 01:15:08;;;;;;;8.93;6.80;;;;;;;-13.07;92.73;99506.63;5070273;28;20041;-64
2024/02/07 01:17:33;;;;;;;10.40;6.30;;;;;;;-13.08;92.76;99506.66;5060841;28;20141;-69
2024/02/07 01:19:59;;;;;;;9.93;7.47;;;;;;;-13.17;92.10;99495.81;5051001;28;20575;-66
2024/02/07 01:22:25;;;;;;;9.80;6.77;;;;;;;-13.20;93.52;99500.22;5051511;28;20053;-71
2024/02/07 01:24:52;;;;;;;9.00;6.32;;;;;;;-13.09;93.74;99508.38;5051201;28;20045;-69
2024/02/07 01:27:17;;;;;;;10.35;6.30;;;;;;;-13.29;93.14;99469.75;5052235;28;20079;-69
2024/02/07 01:29:42;;;;;;;12.60;7.60;;;;;;;-13.20;92.44;99480.56;5066580;28;20033;-65
2024/02/07 01:32:08;;;;;;;13.07;6.77;;;;;;;-13.08;92.18;99506.66;5056649;28;20049;-70
2024/02/07 01:34:34;;;;;;;13.53;8.00;;;;;;;-13.14;92.37;99489.75;5034521;28;20035;-68
2024/02/07 01:36:59;;;;;;;9.43;6.23;;;;;;;-13.37;92.40;99451.19;5052225;28;20072;-67
2024/02/07 01:39:25;;;;;;;12.38;6.78;;;;;;;-13.19;92.32;99471.16;5051452;28;20400;-67
2024/02/07 01:41:56;;;;;;;8.87;6.37;;;;;;;-12.92;92.91;99495.91;5050271;28;20037;-68
2024/02/07 01:44:22;;;;;;;9.30;6.47;;;;;;;-13.07;92.04;99475.03;5050373;28;20476;-68
2024/02/07 01:46:48;;;;;;;11.50;8.20;;;;;;;-13.18;92.27;99447.22;5050659;28;20036;-70
2024/02/07 01:49:15;;;;;;;14.57;8.13;;;;;;;-13.43;92.50;99415.53;5051900;28;20519;-69
2024/02/07 01:51:41;;;;;;;11.23;7.43;;;;;;;-13.13;91.12;99482.03;5051763;28;20401;-67
2024/02/07 01:54:07;;;;;;;15.52;7.07;;;;;;;-13.44;92.13;99450.56;5050780;28;20405;-69
2024/02/07 01:56:34;;;;;;;7.63;5.73;;;;;;;-13.32;93.03;99474.94;5050390;28;20066;-67
2024/02/07 01:59:02;;;;;;;13.20;7.38;;;;;;;-13.31;92.44;99476.63;5058461;28;20037;-70
2024/02/07 02:01:28;;;;;;;11.25;8.45;;;;;;;-13.35;92.88;99475.03;5059605;28;20385;-65
2024/02/07 02:03:53;;;;;;;14.87;8.30;;;;;;;-13.41;93.20;99475.22;5052555;28;20091;-68
2024/02/07 02:06:19;;;;;;;11.03;7.13;;;;;;;-13.36;92.98;99465.69;5052382;28;20623;-69
2024/02/07 02:08:44;;;;;;;9.07;6.73;;;;;;;-13.30;93.59;99478.31;5051844;28;20519;-67
2024/02/07 02:11:12;;;;;;;13.43;7.37;;;;;;;-13.17;93.68;99495.00;5051567;28;20092;-66
2024/02/07 02:13:38;;;;;;;10.85;6.70;;;;;;;-13.22;93.50;99472.09;5051856;28;20037;-67
2024/02/07 02:16:04;;;;;;;11.55;7.63;;;;;;;-13.10;93.31;99485.38;5051659;28;20643;-65
2024/02/07 02:18:30;;;;;;;7.73;6.83;;;;;;;-13.54;92.08;99413.31;5066267;28;20048;-69
2024/02/07 02:21:02;;;;;;;10.27;7.10;;;;;;;-13.06;92.13;99480.09;5052152;28;20057;-69
2024/02/07 02:24:11;;;;;;;10.63;6.55;;;;;;;-12.95;91.36;99493.44;5051462;28;20120;-71
2024/02/07 02:26:38;;;;;;;12.07;7.82;;;;;;;-12.91;92.19;99482.22;5049849;28;20051;-69
2024/02/07 02:29:21;;;;;;;8.63;6.80;;;;;;;-12.95;92.21;99461.84;5051393;28;20065;-70
2024/02/07 02:31:52;;;;;;;12.98;7.97;;;;;;;-13.29;91.56;99423.66;5051159;28;20067;-68
2024/02/07 02:34:18;;;;;;;17.13;7.60;;;;;;;-13.13;91.63;99453.00;5051172;28;20366;-71
2024/02/07 02:36:44;;;;;;;15.55;9.43;;;;;;;-13.03;91.53;99474.03;5050535;28;20025;-65
2024/02/07 02:39:10;;;;;;;13.82;10.23;;;;;;;-12.99;92.96;99468.81;5051113;28;20404;-67
2024/02/07 02:41:36;;;;;;;12.55;9.27;;;;;;;-13.07;93.90;99465.63;5051438;28;20583;-68
2024/02/07 02:44:01;;;;;;;14.33;9.17;;;;;;;-13.16;93.72;99455.66;5050260;28;20123;-68
2024/02/07 02:46:27;;;;;;;20.40;11.07;;;;;;;-13.06;94.53;99449.34;5051909;28;20358;-67
2024/02/07 02:48:52;;;;;;;13.97;8.70;;;;;;;-13.06;94.83;99428.84;5052010;28;20029;-69
2024/02/07 02:51:18;;;;;;;14.87;9.50;;;;;;;-12.65;95.37;99457.47;5052533;28;20033;-68
2024/02/07 02:53:43;;;;;;;19.97;9.57;;;;;;;-12.76;94.63;99421.06;5053879;28;20076;-68
2024/02/07 02:56:09;;;;;;;17.53;11.07;;;;;;;-12.63;93.46;99451.41;5053749;28;20037;-69
2024/02/07 02:58:35;;;;;;;18.20;11.67;;;;;;;-12.71;94.29;99437.16;5055065;28;20045;-65
2024/02/07 03:01:04;;;;;;;17.37;10.00;;;;;;;-12.80;94.62;99432.31;5054168;28;20036;-69
2024/02/07 03:03:33;;;;;;;16.33;9.95;;;;;;;-12.84;93.92;99422.16;5052410;28;20090;-66
2024/02/07 03:05:59;;;;;;;18.85;9.35;;;;;;;-13.07;93.91;99388.75;5050480;28;20089;-69
2024/02/07 03:08:42;;;;;;;11.15;8.27;;;;;;;-12.84;93.93;99417.03;5052777;28;20044;-69
2024/02/07 03:11:09;;;;;;;18.73;8.32;;;;;;;-12.91;94.00;99407.88;5053431;28;20037;-68
2024/02/07 03:13:37;;;;;;;12.60;8.45;;;;;;;-12.82;94.33;99388.78;5055309;28;20040;-69
2024/02/07 03:16:06;;;;;;;13.48;9.05;;;;;;;-13.03;93.16;99359.56;5057314;28;20033;-66
2024/02/07 03:18:35;;;;;;;16.33;8.73;;;;;;;-12.89;93.60;99367.66;5058014;28;20052;-70
2024/02/07 03:21:05;;;;;;;11.07;7.95;;;;;;;-12.70;92.53;99387.56;5054361;28;20095;-69
2024/02/07 03:23:32;;;;;;;14.02;8.45;;;;;;;-12.90;92.03;99363.41;5054676;28;20413;-69
2024/02/07 03:25:58;;;;;;;14.65;7.43;;;;;;;-12.79;92.66;99367.34;5056055;28;20061;-66
2024/02/07 03:28:23;;;;;;;14.60;8.40;;;;;;;-12.52;92.72;99379.22;5059879;28;20041;-65
2024/02/07 03:30:49;;;;;;;11.27;7.53;;;;;;;-12.51;91.58;99373.19;5058579;28;20127;-65
2024/02/07 03:33:15;;;;;;;11.35;7.35;;;;;;;-12.53;91.24;99355.31;5058349;28;20048;-69
2024/02/07 03:35:41;;;;;;;15.80;8.80;;;;;;;-12.62;91.76;99304.34;5062083;28;20041;-66
2024/02/07 03:38:07;;;;;;;13.53;8.77;;;;;;;-12.53;90.77;99339.91;5062105;28;20039;-67
2024/02/07 03:40:33;;;;;;;12.73;8.00;;;;;;;-12.87;91.22;99276.16;5061444;28;20059;-71
2024/02/07 03:42:59;;;;;;;13.27;7.85;;;;;;;-12.59;90.74;99329.03;5060435;28;20064;-73
2024/02/07 03:45:25;;;;;;;10.80;9.07;;;;;;;-12.71;90.67;99316.66;5058292;28;20037;-69
2024/02/07 03:47:50;;;;;;;11.17;8.50;;;;;;;-12.70;90.75;99314.03;5061489;28;20032;-68
2024/02/07 03:50:16;;;;;;;14.83;10.77;;;;;;;-12.85;91.19;99300.00;5062053;28;20029;-70
2024/02/07 03:52:43;;;;;;;15.37;9.23;;;;;;;-12.78;92.46;99323.69;5059681;28;20393;-66
2024/02/07 03:55:12;;;;;;;12.25;8.88;;;;;;;-14.25;92.42;99086.28;5060485;28;20492;-66
2024/02/07 03:57:45;;;;;;;14.60;8.35;;;;;;;-12.82;93.28;99319.56;5059342;28;20052;-67
2024/02/07 04:00:15;;;;;;;16.80;8.52;;;;;;;-12.84;92.41;99323.91;5052642;28;20076;-66
2024/02/07 04:02:48;;;;;;;10.35;8.00;;;;;;;-13.04;92.52;99301.50;5053772;28;20033;-69
2024/02/07 04:05:16;;;;;;;13.45;7.43;;;;;;;-13.38;92.84;99254.91;5053790;28;20372;-69
2024/02/07 04:07:41;;;;;;;19.30;10.30;;;;;;;-13.18;94.19;99289.22;5053844;28;20033;-68
2024/02/07 04:10:11;;;;;;;21.70;10.80;;;;;;;-13.02;93.04;99304.03;5053654;28;20039;-68
2024/02/07 05:15:48;;;;;;;14.07;8.75;;;;;;;-13.70;91.41;99246.53;5053097;28;20057;-70
2024/02/07 05:18:13;;;;;;;14.60;9.07;;;;;;;-13.83;91.83;99258.06;5052995;28;20067;-75
2024/02/07 05:20:40;;;;;;;16.10;7.97;;;;;;;-13.79;92.32;99249.41;5050975;28;20481;-72
2024/02/07 05:23:06;;;;;;;13.45;8.15;;;;;;;-13.63;93.23;99250.56;5051440;28;20045;-74
2024/02/07 05:25:33;;;;;;;14.33;10.03;;;;;;;-13.94;92.15;99188.44;5052594;28;20043;-71
2024/02/07 05:27:59;;;;;;;17.35;11.00;;;;;;;-13.44;92.03;99273.88;5053067;28;20094;-75
2024/02/07 05:30:25;;;;;;;17.35;9.18;;;;;;;-13.35;92.80;99271.00;5059711;28;20037;-69
2024/02/07 05:32:50;;;;;;;12.23;8.25;;;;;;;-13.56;92.55;99216.22;5066983;28;20037;-69
2024/02/07 05:35:16;;;;;;;15.37;8.30;;;;;;;-13.22;92.47;99261.19;5046102;28;20059;-67
2024/02/07 05:37:41;;;;;;;13.13;8.27;;;;;;;-13.34;91.69;99241.94;5045817;28;20039;-71
2024/02/07 05:40:07;;;;;;;16.53;9.57;;;;;;;-13.58;92.27;99212.03;5062762;28;20033;-65
2024/02/07 05:42:33;;;;;;;15.48;9.35;;;;;;;-13.19;93.02;99266.22;5057088;28;20416;-65
2024/02/07 05:44:58;;;;;;;16.30;8.40;;;;;;;-13.25;92.54;99251.88;5057012;28;20055;-69
2024/02/07 05:47:24;;;;;;;13.40;8.00;;;;;;;-13.21;92.96;99252.63;5054429;28;20025;-68
2024/02/07 05:49:49;;;;;;;18.43;10.10;;;;;;;-13.38;93.15;99231.84;5057331;28;20583;-72
2024/02/07 05:52:15;;;;;;;10.87;7.87;;;;;;;-13.28;93.26;99230.66;5060457;28;20041;-68
2024/02/07 05:54:41;;;;;;;14.70;8.73;;;;;;;-13.03;91.84;99256.22;5062316;28;20033;-70
2024/02/07 05:57:08;;;;;;;11.60;8.40;;;;;;;-13.29;91.63;99218.75;5062824;28;20049;-70
2024/02/07 05:59:34;;;;;;;14.15;8.65;;;;;;;-13.13;92.14;99235.22;5061620;28;20033;-68
2024/02/07 06:02:02;;;;;;;11.87;8.17;;;;;;;-13.02;91.36;99256.19;5061676;28;20098;-70
2024/02/07 06:04:28;;;;;;;13.25;8.30;;;;;;;-13.02;91.65;99233.13;5060388;28;20056;-67
2024/02/07 06:06:53;;;;;;;11.77;8.73;;;;;;;-12.93;91.05;99242.22;5050342;28;20048;-70
2024/02/07 06:09:19;;;;;;;11.53;8.53;;;;;;;-13.19;90.90;99209.84;5043001;28;20276;-70
2024/02/07 06:11:45;;;;;;;15.05;9.20;;;;;;;-13.07;91.54;99252.94;5053092;28;20170;-68
2024/02/07 06:14:14;;;;;;;14.85;9.68;;;;;;;-13.22;91.56;99231.28;5061152;28;20033;-70
2024/02/07 06:16:40;;;;;;;12.55;8.05;;;;;;;-13.30;91.66;99217.03;5050199;28;20071;-71
2024/02/07 06:19:07;;;;;;;14.63;9.73;;;;;;;-13.10;92.00;99242.81;5043844;28;20064;-71
2024/02/07 06:21:39;;;;;;;14.18;8.10;;;;;;;-13.23;91.49;99213.41;5072045;28;20041;-72
2024/02/07 06:24:04;;;;;;;11.25;8.10;;;;;;;-13.03;91.48;99233.16;5041699;28;20064;-69
2024/02/07 06:26:30;;;;;;;10.47;7.00;;;;;;;-13.19;91.58;99209.84;5042731;28;20041;-72
2024/02/07 06:28:55;;;;;;;12.90;7.93;;;;;;;-13.25;92.13;99204.94;5040279;28;20090;-73
2024/02/07 06:31:21;;;;;;;11.83;8.93;;;;;;;-13.26;92.57;99195.59;5041166;28;20036;-71
2024/02/07 06:33:47;;;;;;;13.10;7.07;;;;;;;-13.42;93.16;99161.13;5051813;28;20039;-71
2024/02/07 06:36:12;;;;;;;14.65;9.68;;;;;;;-13.15;93.08;99201.13;5049982;28;20086;-73
2024/02/07 06:38:38;;;;;;;13.83;8.77;;;;;;;-13.07;93.14;99204.25;5050048;28;20037;-74
2024/02/07 06:41:03;;;;;;;13.00;8.40;;;;;;;-13.12;92.85;99190.78;5049017;28;20404;-72
2024/02/07 06:43:29;;;;;;;15.67;11.10;;;;;;;-13.05;93.55;99199.91;5051954;28;20716;-69
2024/02/07 06:45:55;;;;;;;11.77;8.30;;;;;;;-12.98;93.73;99198.84;5050402;28;20041;-68
2024/02/07 06:48:21;;;;;;;13.70;8.95;;;;;;;-12.92;93.30;99188.34;5050171;28;20043;-70
2024/02/07 06:50:47;;;;;;;10.53;7.90;;;;;;;-12.83;93.45;99180.31;5053360;28;20036;-69
2024/02/07 06:53:13;;;;;;;14.20;8.88;;;;;;;-12.82;93.05;99168.34;5053258;28;20126;-69
2024/02/07 06:55:39;;;;;;;13.77;8.18;;;;;;;-12.48;93.24;99188.44;5053544;28;20044;-69
2024/02/07 06:58:04;;;;;;;13.60;8.40;;;;;;;-12.62;92.69;99142.81;5054181;28;20049;-70
2024/02/07 07:00:30;;;;;;;18.33;8.27;;;;;;;-12.27;91.94;99187.63;5051049;28;20041;-70
2024/02/07 07:02:55;;;;;;;13.37;7.97;;;;;;;-12.30;90.35;99181.78;5049007;28;20044;-70
2024/02/07 07:05:21;;;;;;;17.27;7.93;;;;;;;-12.31;89.72;99186.06;5034106;28;20042;-74
2024/02/07 07:07:46;;;;;;;14.97;8.73;;;;;;;-12.47;90.41;99158.50;5050022;28;20095;-70
2024/02/07 07:10:12;;;;;;;14.57;8.57;;;;;;;-12.42;90.76;99148.91;5051117;28;20067;-70
2024/02/07 07:12:38;;;;;;;12.40;9.37;;;;;;;-12.16;90.46;99181.22;5051179;28;20065;-74
2024/02/07 07:15:04;;;;;;;17.80;8.27;;;;;;;-12.06;91.03;99183.41;5050273;28;20041;-73
2024/02/07 07:17:29;;;;;;;13.82;8.02;;;;;;;-11.95;90.77;99180.41;5051936;28;20461;-66
2024/02/07 07:19:56;;;;;;;15.13;8.30;;;;;;;-12.29;90.73;99106.50;5051060;28;20065;-70
2024/02/07 07:22:22;;;;;;;16.85;8.55;;;;;;;-12.19;89.10;99159.09;5031915;28;20180;-66
2024/02/07 07:24:48;;;;;;;15.75;10.20;;;;;;;-12.20;89.87;99173.66;5049476;28;20043;-70
2024/02/07 07:27:13;;;;;;;11.37;7.50;;;;;;;-12.28;91.27;99172.28;5050896;28;20487;-70
2024/02/07 07:29:39;;;;;;;13.37;9.50;;;;;;;-12.32;91.72;99148.50;5064199;28;20033;-72
2024/02/07 07:32:04;;;;;;;14.50;8.73;;;;;;;-11.95;91.85;99157.28;5048606;28;20131;-70
2024/02/07 07:34:30;;;;;;;12.63;8.87;;;;;;;-11.96;90.37;99140.22;5043282;28;20493;-70
2024/02/07 07:36:56;;;;;;;19.50;9.83;;;;;;;-11.95;89.20;99134.19;5047890;28;20456;-71
2024/02/07 07:39:21;;;;;;;10.97;7.93;;;;;;;-12.07;89.70;99150.09;5052524;28;20025;-70
2024/02/07 07:41:47;;;;;;;14.37;8.80;;;;;;;-12.23;90.50;99143.00;5053219;28;20029;-68
2024/02/07 07:44:13;;;;;;;14.43;8.20;;;;;;;-12.15;91.15;99162.38;5048734;28;20463;-70
2024/02/07 07:46:38;;;;;;;11.07;7.97;;;;;;;-12.15;92.17;99168.34;5045334;28;20048;-68
2024/02/07 07:49:03;;;;;;;17.40;7.53;;;;;;;-12.12;92.35;99157.16;5046248;28;20130;-68
2024/02/07 07:51:29;;;;;;;11.77;7.60;;;;;;;-12.56;92.58;99087.88;5046712;28;20177;-71
2024/02/07 07:53:55;;;;;;;12.90;7.83;;;;;;;-12.33;93.14;99139.13;5037997;28;20059;-70
2024/02/07 07:56:20;;;;;;;16.67;8.30;;;;;;;-12.37;93.42;99113.66;5043851;28;20543;-72
2024/02/07 07:58:49;;;;;;;14.27;8.40;;;;;;;-12.03;93.05;99146.50;5043714;28;20052;-69
2024/02/07 08:01:16;;;;;;;16.53;7.97;;;;;;;-12.06;92.76;99123.53;5033997;28;20045;-71
2024/02/07 08:03:42;;;;;;;14.95;8.38;;;;;;;-11.93;92.58;99142.66;5036367;28;20470;-69
2024/02/07 08:06:11;;;;;;;14.93;7.77;;;;;;;-11.95;92.89;99106.78;5031892;28;20564;-72
2024/02/07 08:08:38;;;;;;;12.25;7.68;;;;;;;-12.00;92.46;99057.38;5045163;28;20072;-73
2024/02/07 08:11:04;;;;;;;14.95;8.25;;;;;;;-11.58;91.43;99112.94;5042978;28;20037;-71
2024/02/07 08:13:31;;;;;;;14.38;7.30;;;;;;;-11.48;91.60;99111.66;5075014;28;20069;-72
2024/02/07 08:15:57;;;;;;;16.95;10.32;;;;;;;-11.63;89.43;99073.75;5042607;28;20053;-74
2024/02/07 08:18:22;;;;;;;11.87;8.03;;;;;;;-11.36;89.61;99120.56;5047044;28;20033;-71
2024/02/07 08:20:49;;;;;;;16.43;9.67;;;;;;;-11.47;89.58;99117.63;5037117;28;20064;-71
2024/02/07 08:23:14;;;;;;;13.55;8.57;;;;;;;-11.47;90.39;99097.06;5042748;28;20416;-70
2024/02/07 08:25:40;;;;;;;13.47;9.00;;;;;;;-11.18;nan;99117.19;5034585;28;20044;-70
2024/02/07 08:28:05;;;;;;;10.27;6.93;;;;;;;-11.08;90.53;99110.75;5043843;28;20049;-68
2024/02/07 08:30:31;;;;;;;12.50;8.73;;;;;;;-11.10;89.02;99081.72;5039546;28;20037;-70
2024/02/07 08:32:56;;;;;;;11.57;7.40;;;;;;;-10.88;88.00;99117.56;5035931;28;20045;-68
2024/02/07 08:35:22;;;;;;;12.83;8.50;;;;;;;-10.96;88.02;99128.22;5032936;28;20035;-68
2024/02/07 08:37:48;;;;;;;16.03;8.87;;;;;;;-11.11;88.99;99112.63;5038170;28;20044;-71
2024/02/07 08:40:14;;;;;;;15.43;10.97;;;;;;;-11.07;89.39;99106.44;5037025;28;20043;-69
2024/02/07 08:42:39;;;;;;;15.87;7.50;;;;;;;-10.87;89.42;99128.69;5047754;28;20380;-69
2024/02/07 08:45:05;;;;;;;14.20;8.50;;;;;;;-10.87;89.70;99110.69;5033184;28;20039;-72
2024/02/07 08:47:31;;;;;;;20.42;9.43;;;;;;;-10.64;88.79;99141.34;5038245;28;20045;-71
2024/02/07 08:49:56;;;;;;;13.73;8.53;;;;;;;-10.66;88.26;99138.03;5045546;28;20039;-73
2024/02/07 08:52:22;;;;;;;16.80;8.57;;;;;;;-10.87;88.52;99097.84;5040071;28;20484;-66
2024/02/07 08:54:48;;;;;;;15.83;9.23;;;;;;;-10.78;88.88;99117.97;5044185;28;20037;-72
2024/02/07 08:57:13;;;;;;;10.98;7.70;;;;;;;-10.65;88.81;99129.41;5043353;28;20037;-70
2024/02/07 08:59:39;;;;;;;16.53;7.57;;;;;;;-10.74;88.19;99115.19;5041757;28;20071;-70
2024/02/07 09:02:08;;;;;;;16.13;10.27;;;;;;;-11.02;89.01;99071.91;5036704;28;20114;-71
2024/02/07 09:04:34;;;;;;;13.85;8.55;;;;;;;-11.06;88.56;99062.66;5033470;28;20513;-69
2024/02/07 09:06:59;;;;;;;12.03;7.60;;;;;;;-10.77;88.08;99119.66;5040480;28;20044;-70
2024/02/07 09:09:25;;;;;;;14.10;8.77;;;;;;;-11.06;88.91;99083.22;5031066;28;20350;-68
2024/02/07 09:11:50;;;;;;;12.27;7.87;;;;;;;-11.38;89.14;99033.28;5032300;28;20362;-69
2024/02/07 09:14:16;;;;;;;10.90;7.17;;;;;;;-11.05;89.69;99074.63;5033245;28;20098;-69
2024/02/07 09:16:42;;;;;;;12.50;9.23;;;;;;;-10.72;89.35;99117.69;5032242;28;20384;-69
2024/02/07 09:19:11;;;;;;;14.38;7.65;;;;;;;-10.83;88.92;99104.50;5030900;28;20152;-69
2024/02/07 09:21:36;;;;;;;14.25;7.20;;;;;;;-10.74;89.81;99115.19;5031208;28;20053;-72
2024/02/07 09:24:04;;;;;;;12.53;7.27;;;;;;;-10.77;90.43;99081.06;5031457;28;20037;-69
2024/02/07 09:26:30;;;;;;;19.98;8.50;;;;;;;-10.56;88.82;99128.13;5032384;28;20107;-71
2024/02/07 09:28:56;;;;;;;14.85;8.18;;;;;;;-10.60;89.64;99124.03;5032112;28;20045;-69
2024/02/07 09:31:21;;;;;;;10.70;6.83;;;;;;;-10.47;88.97;99119.97;5032846;28;20033;-69
2024/02/07 09:33:47;;;;;;;15.00;8.70;;;;;;;-10.52;88.47;99120.19;5030889;28;20131;-70
2024/02/07 09:36:12;;;;;;;14.63;9.23;;;;;;;-10.85;89.04;99090.88;5031649;28;20056;-70
2024/02/07 09:38:38;;;;;;;12.57;8.17;;;;;;;-10.76;89.66;99096.44;5031630;28;20041;-69
2024/02/07 09:41:04;;;;;;;17.57;8.07;;;;;;;-10.61;90.50;99107.78;5032033;28;20417;-74
2024/02/07 09:43:32;;;;;;;14.50;8.07;;;;;;;-10.57;90.76;99099.00;5032526;28;20485;-71
2024/02/07 09:45:58;;;;;;;11.88;7.72;;;;;;;-10.57;90.69;99091.28;5032070;28;20491;-72
2024/02/07 09:48:28;;;;;;;10.73;8.20;;;;;;;-10.47;90.58;99107.94;5032326;28;20037;-70
2024/02/07 09:50:57;;;;;;;14.73;7.82;;;;;;;-10.72;90.54;99058.53;5032873;28;20033;-73
2024/02/07 09:53:24;;;;;;;14.18;8.13;;;;;;;-10.62;90.73;99082.94;5030494;28;20033;-69
2024/02/07 09:55:51;;;;;;;13.45;8.55;;;;;;;-10.58;91.35;99089.63;5032157;28;20037;-69
2024/02/07 09:58:18;;;;;;;11.35;8.48;;;;;;;-10.64;91.18;99079.63;5031316;28;20048;-71
2024/02/07 10:00:44;;;;;;;11.85;7.93;;;;;;;-10.63;90.75;99107.00;5040358;28;20040;-68
2024/02/07 10:03:14;;;;;;;10.20;7.67;;;;;;;-10.63;91.54;99094.16;5033710;28;20047;-69
2024/02/07 10:05:51;;;;;;;13.85;8.30;;;;;;;-10.61;90.81;99088.94;5031719;28;20326;-70
2024/02/07 10:08:17;;;;;;;16.17;8.77;;;;;;;-10.70;89.72;99074.72;5030213;28;20076;-69
2024/02/07 10:10:47;;;;;;;15.20;8.85;;;;;;;-10.67;90.51;99069.47;5030355;28;20508;-71
2024/02/07 10:13:15;;;;;;;14.77;8.82;;;;;;;-10.89;89.34;99040.50;5030034;28;20041;-69
2024/02/07 10:15:42;;;;;;;14.75;8.93;;;;;;;-10.42;89.73;99100.84;5032023;28;20077;-69
2024/02/07 10:18:08;;;;;;;13.18;8.00;;;;;;;-10.54;89.85;99086.00;5032620;28;20037;-66
2024/02/07 10:20:34;;;;;;;19.80;9.37;;;;;;;-10.75;89.68;99048.41;5036608;28;20061;-70
2024/02/07 10:22:59;;;;;;;11.70;7.00;;;;;;;-10.44;90.62;99099.25;5035855;28;20087;-72
2024/02/07 10:25:25;;;;;;;15.30;7.70;;;;;;;-10.56;90.54;99077.50;5035274;28;20080;-70
2024/02/07 10:28:01;;;;;;;16.60;8.93;;;;;;;-10.49;89.86;99078.88;5034239;28;20099;-68
2024/02/07 10:30:26;;;;;;;21.67;8.70;;;;;;;-10.19;89.65;99101.47;5036803;28;20125;-70
2024/02/07 10:32:52;;;;;;;14.97;9.73;;;;;;;-11.37;88.37;98915.91;5035352;28;20124;-66
2024/02/07 10:35:17;;;;;;;10.23;7.83;;;;;;;-10.38;89.07;99060.38;5036114;28;20037;-70
2024/02/07 10:37:43;;;;;;;11.03;7.90;;;;;;;-10.20;88.80;99084.38;5034007;28;20029;-67
2024/02/07 10:40:12;;;;;;;11.47;8.17;;;;;;;-10.13;88.69;99083.97;5034472;28;20048;-72
2024/02/07 10:42:39;;;;;;;15.15;9.77;;;;;;;-10.33;89.07;99059.25;5034006;28;20041;-72
2024/02/07 10:45:11;;;;;;;15.98;9.48;;;;;;;-10.10;89.01;99090.75;5018618;28;20120;-68
2024/02/07 10:47:37;;;;;;;11.32;8.35;;;;;;;-10.40;88.29;99027.00;5039201;28;20037;-68
2024/02/07 10:50:05;;;;;;;16.93;8.93;;;;;;;-9.97;88.13;99076.34;5041639;28;20114;-69
2024/02/07 10:52:30;;;;;;;14.48;8.68;;;;;;;-9.84;87.57;99074.00;5055950;28;20033;-68
2024/02/07 10:54:56;;;;;;;11.80;8.90;;;;;;;-9.88;86.75;99080.22;5056510;28;20040;-72
2024/02/07 10:57:30;;;;;;;15.90;10.23;;;;;;;-10.04;87.40;99044.09;5055850;28;20076;-71
2024/02/07 10:59:59;;;;;;;13.05;8.65;;;;;;;-9.88;88.57;99065.59;5055124;28;20041;-70
2024/02/07 11:02:25;;;;;;;12.02;8.07;;;;;;;-9.92;86.95;99076.13;5054505;28;20056;-68
2024/02/07 11:04:51;;;;;;;15.40;8.55;;;;;;;-10.10;87.87;99054.69;5037152;28;20477;-69
2024/02/07 11:07:17;;;;;;;14.77;9.43;;;;;;;-10.03;87.58;99045.75;5038118;28;20069;-74
2024/02/07 11:09:44;;;;;;;10.60;7.90;;;;;;;-9.75;86.99;99076.13;5056619;28;20393;-70
2024/02/07 11:12:14;;;;;;;11.30;8.27;;;;;;;-9.74;87.16;99060.59;5055487;28;20420;-72
2024/02/07 11:14:45;;;;;;;16.17;8.10;;;;;;;-9.68;86.78;99062.03;5054136;28;20124;-70
2024/02/07 11:17:13;;;;;;;11.80;7.65;;;;;;;-9.45;87.49;99090.03;5053898;28;20036;-69
2024/02/07 11:19:42;;;;;;;13.20;8.43;;;;;;;-9.58;86.23;99062.38;5054514;28;20087;-69
2024/02/07 11:22:37;;;;;;;14.00;8.38;;;;;;;-9.31;86.57;99076.41;5054385;28;20416;-70
2024/02/07 11:25:04;;;;;;;13.07;8.90;;;;;;;-9.48;85.26;99048.13;5054604;28;20048;-69
2024/02/07 11:27:30;;;;;;;19.33;9.27;;;;;;;-9.33;84.64;99077.41;5054106;28;20033;-70
2024/02/07 11:29:56;;;;;;;11.27;8.93;;;;;;;-9.56;84.59;99057.97;5053649;28;20079;-74
2024/02/07 11:32:21;;;;;;;12.30;7.90;;;;;;;-9.69;86.13;99039.75;5052505;28;20384;-72
2024/02/07 11:34:53;;;;;;;11.20;8.30;;;;;;;-9.78;87.59;99019.63;5054156;28;20250;-68
2024/02/07 11:37:20;;;;;;;12.75;8.00;;;;;;;-9.62;86.60;99041.09;5052411;28;20029;-68
2024/02/07 11:39:49;;;;;;;12.88;8.30;;;;;;;-9.68;86.56;99057.69;5054627;28;20080;-71
2024/02/07 11:42:16;;;;;;;11.40;7.18;;;;;;;-9.46;87.29;99092.69;5053756;28;20040;-67
2024/02/07 11:44:59;;;;;;;13.02;7.95;;;;;;;-9.45;86.51;99078.91;5053512;28;20045;-75
2024/02/07 11:47:32;;;;;;;15.93;9.32;;;;;;;-9.82;86.06;99034.41;5053457;28;20412;-75
2024/02/07 11:50:02;;;;;;;16.45;8.32;;;;;;;-9.56;86.14;99087.16;5053810;28;20120;-76
2024/02/07 11:52:33;;;;;;;14.18;8.07;;;;;;;-9.63;86.86;99075.50;5036207;28;20404;-72
2024/02/07 11:55:15;;;;;;;16.40;8.38;;;;;;;-9.44;87.29;99096.03;5053561;28;20068;-72
2024/02/07 11:57:44;;;;;;;17.13;9.25;;;;;;;-9.38;87.00;99099.13;5053032;28;20044;-73
2024/02/07 12:00:21;;;;;;;15.38;8.48;;;;;;;-10.47;87.37;98932.16;5055760;28;20036;-70
2024/02/07 12:02:57;;;;;;;13.30;9.48;;;;;;;-9.49;87.37;99093.69;5053122;28;20111;-69
2024/02/07 12:05:23;;;;;;;15.43;9.82;;;;;;;-9.38;87.45;99098.28;5054967;28;20048;-73
2024/02/07 12:07:49;;;;;;;17.10;9.00;;;;;;;-9.45;86.44;99097.75;5054444;28;20041;-73
2024/02/07 12:10:15;;;;;;;13.68;10.07;;;;;;;-9.61;88.12;99104.59;5051639;28;20037;-68
2024/02/07 12:12:40;;;;;;;15.00;7.93;;;;;;;-9.75;88.92;99087.25;5039089;28;20037;-70
2024/02/07 12:15:07;;;;;;;15.53;10.07;;;;;;;-9.89;88.20;99079.38;5052087;28;20484;-74
2024/02/07 12:17:36;;;;;;;15.60;8.80;;;;;;;-9.93;89.85;99075.28;5051660;28;20040;-74
2024/02/07 12:20:04;;;;;;;14.90;8.10;;;;;;;-9.87;90.68;99081.88;5052908;28;20061;-74
2024/02/07 12:22:33;;;;;;;14.48;9.38;;;;;;;-9.90;88.94;99079.44;5053171;28;20041;-71